aviador You're here:

KOCQ Decoded Metar

in
Report Time2018-04-22 14:15:00
UTC Time2018-04-22 14:26:01
Flight Rules vfr VFR
WindCalm
Visibility9999 m
Phenomena:N/A
Clouds:N/A
Expected CloudBase > 3,200 ft AGL from Temp-Dew spread
CeilingNone
Temp07°C
Dew Point-1°C (57% RH)
AAT4.9°C
QNH1030 hPa
Raw Report
KOCQ 221415Z AUTO 00000KT 10SM CLR 07/M01 A3041 RMK AO1
T00711009=

Extra information for KOCQ:More info

Social comments